Wednesday, January 28, 2015, 1:10 PM EST

KIPT, Williamsport-lycoming County

Location: Montoursville, PA, United States Lat: 41.25
Local Time: 1:10 PM EST (18:10 GMT) Lon: -76.917
Time Zone: US/Eastern Elev: 528 ft

Show me the last for .
Show Decoded

2015-01-28 12:54 METAR KIPT 281754Z 27010KT 9SM CLR M02/M15 A3019 RMK AO2 SLP231 T10221150 11022
                 21117 58007 =
2015-01-28 11:54 METAR KIPT 281654Z 25013KT 10SM CLR M04/M16 A3020 RMK AO2 SLP235 T10441156 =
2015-01-28 10:54 METAR KIPT 281554Z 26013KT 10SM CLR M07/M16 A3022 RMK AO2 SLP241 T10671156 =
2015-01-28 09:54 METAR KIPT 281454Z 26014KT 10SM CLR M08/M16 A3021 RMK AO2 SLP240 T10831161 51021
                 =
2015-01-28 08:54 METAR KIPT 281354Z 28014KT 10SM CLR M10/M16 A3020 =
2015-01-28 07:54 METAR KIPT 281254Z 27015KT 10SM CLR M11/M17 A3018 RMK AO2 SLP230 T11111167 =
2015-01-28 06:54 METAR KIPT 281154Z 27017KT 10SM CLR M12/M17 A3015 RMK AO2 SLP219 T11171167 11100
                 21117 53026 =
2015-01-28 05:54 METAR KIPT 281054Z AUTO 28015G22KT 10SM CLR M12/M17 A3012 RMK AO2 SLP209
                 T11171167 =
2015-01-28 04:54 METAR KIPT 280954Z AUTO 27013KT 10SM CLR M12/M17 A3009 RMK AO2 SLP199 T11171172
                 =
2015-01-28 03:54 METAR KIPT 280854Z AUTO 28010KT 10SM CLR M11/M17 A3007 RMK AO2 SLP191 T11111172
                 53010 =
2015-01-28 02:54 METAR KIPT 280754Z AUTO 28011KT 10SM CLR M11/M17 A3005 RMK AO2 SLP185 T11111172
                 =
2015-01-28 01:54 METAR KIPT 280654Z AUTO 28009KT 10SM CLR M11/M17 A3005 RMK AO2 SLP182 T11061172
                 =
2015-01-28 00:54 METAR KIPT 280554Z AUTO 27005KT 10SM CLR M11/M17 A3004 RMK AO2 SLP181 T11061172
                 11078 21106 51009 =
2015-01-27 23:54 METAR KIPT 280454Z AUTO 28008KT 10SM CLR M10/M17 A3003 RMK AO2 SLP179 T11001172
                 410171100 =
2015-01-27 22:54 METAR KIPT 280354Z AUTO 29009KT 10SM CLR M10/M17 A3003 =
2015-01-27 21:54 METAR KIPT 280254Z 31011G18KT 10SM CLR M09/M17 A3001 RMK AO2 SLP172 T10941172
                 51026 =
2015-01-27 20:54 METAR KIPT 280154Z 32012G19KT 10SM CLR M09/M17 A2999 RMK AO2 SLP165 T10941167 =
2015-01-27 19:54 METAR KIPT 280054Z 33010G21KT 10SM CLR M09/M17 A2997 RMK AO2 SLP158 T10891167 =
2015-01-27 18:54 METAR KIPT 272354Z 30014G20KT 10SM CLR M08/M16 A2993 RMK AO2 SLP145 T10781161
                 11017 21078 53029 =
2015-01-27 17:54 METAR KIPT 272254Z 31014KT 10SM CLR M07/M16 A2990 RMK AO2 SLP134 T10671156 =
2015-01-27 16:54 METAR KIPT 272154Z 30014KT 10SM CLR M04/M14 A2987 RMK AO2 SLP122 T10441139 =
2015-01-27 15:54 METAR KIPT 272054Z 34011KT 10SM OVC095 M03/M15 A2985 RMK AO2 SLP114 T10281150
                 53007 =
2015-01-27 14:54 METAR KIPT 271954Z 33009KT 10SM BKN090 M02/M13 A2983 RMK AO2 SLP109 T10221133 =
2015-01-27 13:54 METAR KIPT 271854Z 34007KT 10SM BKN090 BKN110 M02/M13 A2982 RMK AO2 SLP103
                 T10171133 =

Support USWX by starting your Amazon purchase here.